Pulleys Mill, Illinois
Current Conditions -  °F | °C
As of 1:55 AM on Saturday 25 Oct 2014 (Local Time) from KMWA Reporting Station
Overcast Overcast  
Wind Chill: 14°   Ceiling: 5500
Heat Index: 14°   Visibility: 10mi
Dew Point: 12°   Wind: 3mph
Humidity: 88%   Direction: 190°S
Pressure: 30.03"   Gusts: NA
Location:  37.565°N, 88.982°W
Report Text: KMWA 250655Z AUTO 19003KT 10SM OVC055 14/12 A3003 RMK AO2
Loading
Personal Weather Stations






























Interactive Weather Map
Tropical Storm Tracking
New forecast layout! Learn more

10-Day Weather Forecast

Advertisements
Track Severe Weather on mobile